createdAt,value
2022-09-29T00:00:14.486Z,8.03
2022-09-29T00:01:04.463Z,8.03
2022-09-29T00:01:54.508Z,8.03
2022-09-29T00:02:44.497Z,8.03
2022-09-29T00:03:34.487Z,8.02
2022-09-29T00:04:24.452Z,8.02
2022-09-29T00:05:14.415Z,8.02
2022-09-29T00:06:04.413Z,8.03
2022-09-29T00:06:54.404Z,8.03
2022-09-29T00:07:44.401Z,8.02
2022-09-29T00:08:34.386Z,8.02
2022-09-29T00:09:24.380Z,8.04
2022-09-29T00:10:14.380Z,8.04
2022-09-29T00:11:04.351Z,8.04
2022-09-29T00:11:54.340Z,8.04
2022-09-29T00:12:44.339Z,8.04
2022-09-29T00:13:34.323Z,8.06
2022-09-29T00:14:24.321Z,8.04
2022-09-29T00:15:14.309Z,8.03
2022-09-29T00:16:04.389Z,8.04
2022-09-29T00:16:54.290Z,8.03
2022-09-29T00:18:03.000Z,8.03
2022-09-29T00:18:35.272Z,8.04
2022-09-29T00:19:24.259Z,8.03
2022-09-29T00:20:14.249Z,8.03
2022-09-29T00:21:04.259Z,8.03
2022-09-29T00:21:54.319Z,8.03
2022-09-29T00:22:44.230Z,8.04
2022-09-29T00:23:34.209Z,8.04
2022-09-29T00:24:24.202Z,8.04
2022-09-29T00:25:14.201Z,8.07
2022-09-29T00:26:04.195Z,8.04
2022-09-29T00:26:54.176Z,8.04
2022-09-29T00:27:44.192Z,8.06
2022-09-29T00:28:34.159Z,8.06
2022-09-29T00:29:24.149Z,8.06
2022-09-29T00:30:14.145Z,8.07
2022-09-29T00:31:04.197Z,8.07
2022-09-29T00:31:54.203Z,8.07
2022-09-29T00:32:44.120Z,8.06
2022-09-29T00:33:34.328Z,8.06
2022-09-29T00:34:24.097Z,8.03
2022-09-29T00:35:14.087Z,8.03
2022-09-29T00:36:04.079Z,8.03
2022-09-29T00:36:54.076Z,8.03
2022-09-29T00:37:44.058Z,8.02
2022-09-29T00:38:34.045Z,7.99
2022-09-29T00:39:24.068Z,8.00
2022-09-29T00:40:14.027Z,8.00
2022-09-29T00:41:04.017Z,8.00
2022-09-29T00:41:54.029Z,8.00
2022-09-29T00:42:44.009Z,7.99
2022-09-29T00:43:33.989Z,7.99
2022-09-29T00:44:23.992Z,7.96
2022-09-29T00:45:14.188Z,7.96
2022-09-29T00:46:04.076Z,7.96
2022-09-29T00:46:53.948Z,7.96
2022-09-29T00:47:43.948Z,7.96
2022-09-29T00:48:33.938Z,7.99
2022-09-29T00:49:23.928Z,7.99
2022-09-29T00:50:13.915Z,8.00
2022-09-29T00:51:04.119Z,7.99
2022-09-29T00:51:53.902Z,8.00
2022-09-29T00:52:43.895Z,8.00
2022-09-29T00:53:33.875Z,8.00
2022-09-29T00:54:23.873Z,8.00
2022-09-29T00:55:13.873Z,7.99
2022-09-29T00:56:03.854Z,7.99
2022-09-29T00:56:53.923Z,7.99
2022-09-29T00:57:43.835Z,7.99
2022-09-29T00:58:33.824Z,7.99
2022-09-29T00:59:23.817Z,7.99
2022-09-29T01:00:13.798Z,7.96
2022-09-29T01:01:03.867Z,7.99
2022-09-29T01:01:53.834Z,7.96
2022-09-29T01:02:43.996Z,7.96
2022-09-29T01:03:33.764Z,7.99
2022-09-29T01:04:23.764Z,7.96
2022-09-29T01:05:13.745Z,7.95
2022-09-29T01:06:03.748Z,7.95
2022-09-29T01:06:53.724Z,7.94
2022-09-29T01:07:43.724Z,7.94
2022-09-29T01:08:33.762Z,7.96
2022-09-29T01:09:23.704Z,7.96
2022-09-29T01:10:13.693Z,7.96
2022-09-29T01:11:03.693Z,7.96
2022-09-29T01:11:53.672Z,7.99
2022-09-29T01:12:43.665Z,7.96
2022-09-29T01:13:33.665Z,7.96
2022-09-29T01:14:23.677Z,7.99
2022-09-29T01:15:13.635Z,7.99
2022-09-29T01:16:03.715Z,8.00
2022-09-29T01:16:53.631Z,7.99
2022-09-29T01:17:43.613Z,7.99
2022-09-29T01:18:33.592Z,7.96
2022-09-29T01:19:23.604Z,7.99
2022-09-29T01:20:13.796Z,7.96
2022-09-29T01:21:03.573Z,7.96
2022-09-29T01:21:53.562Z,7.96
2022-09-29T01:22:43.559Z,7.96
2022-09-29T01:23:33.552Z,7.99
2022-09-29T01:24:23.542Z,7.99
2022-09-29T01:25:13.529Z,7.96
2022-09-29T01:26:03.595Z,7.99
2022-09-29T01:26:53.502Z,7.99
2022-09-29T01:27:43.516Z,7.99
2022-09-29T01:28:33.490Z,7.96
2022-09-29T01:29:23.481Z,7.99
2022-09-29T01:30:13.468Z,7.99
2022-09-29T01:31:03.524Z,7.99
2022-09-29T01:31:53.496Z,7.99
2022-09-29T01:32:43.442Z,8.00
2022-09-29T01:33:33.431Z,8.00
2022-09-29T01:34:23.424Z,8.00
2022-09-29T01:35:13.411Z,7.96
2022-09-29T01:36:03.403Z,7.95
2022-09-29T01:36:53.404Z,7.94
2022-09-29T01:37:43.416Z,7.92
2022-09-29T01:38:33.378Z,7.89
2022-09-29T01:39:23.367Z,7.86
2022-09-29T01:40:13.360Z,7.82
2022-09-29T01:41:03.478Z,7.79
2022-09-29T01:41:53.337Z,7.77
2022-09-29T01:42:43.336Z,7.76
2022-09-29T01:43:33.537Z,7.74
2022-09-29T01:44:23.320Z,7.71
2022-09-29T01:45:13.304Z,7.73
2022-09-29T01:46:03.422Z,7.71
2022-09-29T01:46:53.292Z,7.74
2022-09-29T01:47:43.281Z,7.76
2022-09-29T01:48:33.304Z,7.77
2022-09-29T01:49:23.476Z,7.79
2022-09-29T01:50:13.251Z,7.79
2022-09-29T01:51:03.261Z,7.81
2022-09-29T01:51:53.233Z,7.81
2022-09-29T01:52:43.222Z,7.82
2022-09-29T01:53:33.207Z,7.84
2022-09-29T01:54:23.218Z,7.84
2022-09-29T01:55:13.209Z,7.84
2022-09-29T01:56:03.190Z,7.82
2022-09-29T01:56:53.170Z,7.86
2022-09-29T01:57:43.176Z,7.88
2022-09-29T01:58:33.157Z,7.86
2022-09-29T01:59:23.149Z,7.86
2022-09-29T02:00:13.135Z,7.86
2022-09-29T02:01:03.200Z,7.88
2022-09-29T02:01:53.143Z,7.89
2022-09-29T02:02:43.118Z,7.91
2022-09-29T02:03:33.098Z,7.89
2022-09-29T02:04:23.090Z,7.89
2022-09-29T02:05:13.078Z,7.88
2022-09-29T02:06:03.069Z,7.89
2022-09-29T02:06:53.087Z,7.91
2022-09-29T02:07:43.057Z,7.91
2022-09-29T02:08:33.048Z,7.91
2022-09-29T02:09:23.040Z,7.91
2022-09-29T02:10:13.025Z,7.92
2022-09-29T02:11:03.017Z,7.94
2022-09-29T02:11:53.009Z,7.92
2022-09-29T02:12:43.037Z,7.94
2022-09-29T02:13:32.987Z,7.92
2022-09-29T02:14:22.985Z,7.92
2022-09-29T02:15:12.971Z,7.92
2022-09-29T02:16:03.029Z,7.94
2022-09-29T02:16:52.957Z,7.91
2022-09-29T02:17:42.946Z,7.91
2022-09-29T02:18:33.145Z,7.92
2022-09-29T02:19:22.925Z,7.92
2022-09-29T02:20:12.915Z,7.92
2022-09-29T02:21:02.920Z,7.94
2022-09-29T02:21:52.895Z,7.96
2022-09-29T02:22:42.893Z,7.96
2022-09-29T02:23:32.876Z,8.00
2022-09-29T02:24:22.895Z,8.02
2022-09-29T02:25:12.883Z,8.02
2022-09-29T02:26:02.854Z,8.03
2022-09-29T02:26:52.843Z,8.03
2022-09-29T02:27:42.834Z,8.04
2022-09-29T02:28:32.815Z,8.04
2022-09-29T02:29:22.813Z,8.04
2022-09-29T02:30:12.823Z,8.06
2022-09-29T02:31:02.851Z,8.03
2022-09-29T02:31:52.850Z,8.02
2022-09-29T02:32:42.773Z,8.02
2022-09-29T02:33:32.766Z,7.99
2022-09-29T02:34:22.753Z,8.00
2022-09-29T02:35:12.743Z,7.99
2022-09-29T02:36:02.957Z,7.99
2022-09-29T02:36:52.725Z,7.99
2022-09-29T02:37:42.725Z,7.99
2022-09-29T02:38:32.718Z,7.99
2022-09-29T02:39:22.702Z,7.96
2022-09-29T02:40:12.683Z,7.99
2022-09-29T02:41:02.691Z,7.96
2022-09-29T02:41:52.698Z,7.99
2022-09-29T02:42:42.669Z,7.95
2022-09-29T02:43:32.668Z,7.96
2022-09-29T02:44:22.653Z,7.95
2022-09-29T02:45:12.639Z,7.96
2022-09-29T02:46:02.668Z,7.95
2022-09-29T02:46:52.613Z,7.94
2022-09-29T02:47:42.631Z,7.94
2022-09-29T02:48:32.596Z,7.94
2022-09-29T02:49:22.610Z,7.92
2022-09-29T02:50:12.574Z,7.92
2022-09-29T02:51:02.570Z,7.91
2022-09-29T02:51:52.560Z,7.92
2022-09-29T02:52:42.555Z,7.92
2022-09-29T02:53:32.563Z,7.94
2022-09-29T02:54:22.544Z,7.94
2022-09-29T02:55:12.528Z,7.89
2022-09-29T02:56:02.509Z,7.89
2022-09-29T02:56:52.514Z,7.88
2022-09-29T02:57:42.500Z,7.89
2022-09-29T02:58:32.490Z,7.91
2022-09-29T02:59:22.543Z,7.91
2022-09-29T03:00:12.469Z,7.89
2022-09-29T03:01:02.514Z,7.92
2022-09-29T03:01:52.467Z,7.91
2022-09-29T03:02:42.439Z,7.92
2022-09-29T03:03:32.459Z,7.91
2022-09-29T03:04:22.418Z,7.91
2022-09-29T03:05:12.470Z,7.94
2022-09-29T03:06:02.402Z,7.91
2022-09-29T03:06:52.391Z,7.92
2022-09-29T03:07:42.389Z,7.92
2022-09-29T03:08:32.378Z,7.91
2022-09-29T03:09:22.361Z,7.88
2022-09-29T03:10:12.360Z,7.86
2022-09-29T03:11:02.558Z,7.85
2022-09-29T03:11:52.348Z,7.88
2022-09-29T03:12:42.318Z,7.85
2022-09-29T03:13:32.328Z,7.85
2022-09-29T03:14:22.310Z,7.85
2022-09-29T03:15:12.334Z,7.85
2022-09-29T03:16:02.374Z,7.85
2022-09-29T03:16:52.301Z,7.84
2022-09-29T03:17:42.268Z,7.82
2022-09-29T03:18:32.267Z,7.82
2022-09-29T03:19:22.255Z,7.82
2022-09-29T03:20:12.275Z,7.81
2022-09-29T03:21:02.239Z,7.79
2022-09-29T03:21:52.229Z,7.77
2022-09-29T03:22:42.426Z,7.77
2022-09-29T03:23:32.213Z,7.77
2022-09-29T03:24:22.196Z,7.76
2022-09-29T03:25:12.187Z,7.77
2022-09-29T03:26:02.187Z,7.81
2022-09-29T03:26:52.186Z,7.82
2022-09-29T03:27:42.164Z,7.84
2022-09-29T03:28:32.176Z,7.82
2022-09-29T03:29:22.136Z,7.86
2022-09-29T03:30:12.134Z,7.86
2022-09-29T03:31:02.182Z,7.85
2022-09-29T03:31:52.206Z,7.85
2022-09-29T03:32:42.105Z,7.86
2022-09-29T03:33:32.104Z,7.86
2022-09-29T03:34:22.113Z,7.88
2022-09-29T03:35:12.076Z,7.88
2022-09-29T03:36:02.067Z,7.88
2022-09-29T03:36:52.065Z,7.88
2022-09-29T03:37:42.052Z,7.86
2022-09-29T03:38:32.044Z,7.86
2022-09-29T03:39:22.025Z,7.88
2022-09-29T03:40:12.058Z,7.88
2022-09-29T03:41:02.087Z,7.88
2022-09-29T03:41:52.053Z,7.89
2022-09-29T03:42:41.995Z,7.91
2022-09-29T03:43:31.988Z,7.91
2022-09-29T03:44:21.966Z,7.94
2022-09-29T03:45:11.973Z,7.92
2022-09-29T03:46:02.130Z,7.92
2022-09-29T03:46:51.984Z,7.92
2022-09-29T03:47:41.944Z,7.92
2022-09-29T03:48:31.933Z,7.92
2022-09-29T03:49:21.915Z,7.94
2022-09-29T03:50:11.931Z,7.94
2022-09-29T03:51:01.893Z,7.92
2022-09-29T03:51:51.915Z,7.92
2022-09-29T03:52:41.887Z,7.94
2022-09-29T03:53:31.876Z,7.94
2022-09-29T03:54:21.865Z,7.92
2022-09-29T03:55:11.853Z,7.92
2022-09-29T03:56:01.843Z,7.92
2022-09-29T03:56:51.834Z,7.91
2022-09-29T03:57:41.854Z,7.91
2022-09-29T03:58:31.823Z,7.92
2022-09-29T03:59:21.805Z,7.92
2022-09-29T04:00:11.804Z,7.91
2022-09-29T04:01:01.914Z,7.94
2022-09-29T04:01:51.842Z,7.95
2022-09-29T04:02:41.763Z,7.94
2022-09-29T04:03:31.813Z,7.94
2022-09-29T04:04:21.753Z,7.92
2022-09-29T04:05:11.743Z,7.94
2022-09-29T04:06:01.743Z,7.94
2022-09-29T04:06:51.721Z,7.94
2022-09-29T04:07:41.721Z,7.94
2022-09-29T04:08:31.705Z,7.94
2022-09-29T04:09:21.910Z,7.94
2022-09-29T04:10:11.695Z,7.96
2022-09-29T04:11:01.682Z,7.95
2022-09-29T04:11:51.669Z,7.94
2022-09-29T04:12:41.666Z,7.95
2022-09-29T04:13:31.652Z,7.94
2022-09-29T04:14:21.642Z,7.95
2022-09-29T04:15:11.654Z,7.96
2022-09-29T04:16:01.685Z,7.95
2022-09-29T04:16:51.614Z,7.95
2022-09-29T04:17:41.599Z,7.96
2022-09-29T04:18:31.603Z,7.95
2022-09-29T04:19:21.595Z,7.94
2022-09-29T04:20:11.579Z,7.94
2022-09-29T04:21:01.588Z,7.95
2022-09-29T04:21:51.560Z,7.94
2022-09-29T04:22:41.540Z,7.94
2022-09-29T04:23:31.551Z,7.95
2022-09-29T04:24:21.535Z,7.94
2022-09-29T04:25:11.529Z,7.94
2022-09-29T04:26:01.508Z,7.95
2022-09-29T04:26:51.540Z,7.94
2022-09-29T04:27:41.487Z,7.94
2022-09-29T04:28:31.480Z,7.94
2022-09-29T04:29:21.469Z,7.95
2022-09-29T04:30:11.479Z,7.94
2022-09-29T04:31:01.451Z,7.95
2022-09-29T04:31:51.484Z,7.96
2022-09-29T04:32:41.488Z,7.95
2022-09-29T04:33:31.707Z,7.92
2022-09-29T04:34:21.419Z,7.92
2022-09-29T04:35:11.411Z,7.94
2022-09-29T04:36:01.402Z,7.92
2022-09-29T04:36:51.396Z,7.94
2022-09-29T04:37:41.381Z,7.92
2022-09-29T04:38:31.370Z,7.91
2022-09-29T04:39:21.495Z,7.88
2022-09-29T04:40:11.368Z,7.89
2022-09-29T04:41:01.414Z,7.88
2022-09-29T04:41:51.338Z,7.85
2022-09-29T04:42:41.322Z,7.84
2022-09-29T04:43:31.318Z,7.81
2022-09-29T04:44:21.307Z,7.77
2022-09-29T04:45:11.325Z,7.71
2022-09-29T04:46:01.332Z,7.69
2022-09-29T04:46:51.290Z,7.69
2022-09-29T04:47:41.267Z,7.66
2022-09-29T04:48:35.003Z,7.62
2022-09-29T04:49:21.344Z,7.60
2022-09-29T04:50:11.258Z,7.60
2022-09-29T04:51:01.252Z,7.60
2022-09-29T04:51:51.226Z,7.60
2022-09-29T04:52:41.217Z,7.60
2022-09-29T04:53:31.208Z,7.57
2022-09-29T04:54:21.255Z,7.54
2022-09-29T04:55:11.187Z,7.54
2022-09-29T04:56:01.180Z,7.54
2022-09-29T04:56:51.197Z,7.52
2022-09-29T04:57:41.158Z,7.54
2022-09-29T04:58:31.155Z,7.54
2022-09-29T04:59:21.260Z,7.54
2022-09-29T05:00:11.134Z,7.54
2022-09-29T05:01:01.166Z,7.52
2022-09-29T05:01:51.151Z,7.51
2022-09-29T05:02:41.132Z,7.48
2022-09-29T05:03:31.104Z,7.48
2022-09-29T05:04:21.086Z,7.50
2022-09-29T05:05:11.075Z,7.51
2022-09-29T05:06:01.064Z,7.50
2022-09-29T05:06:51.078Z,7.48
2022-09-29T05:07:41.044Z,7.48
2022-09-29T05:08:31.074Z,7.45
2022-09-29T05:09:24.644Z,7.47
2022-09-29T05:10:11.029Z,7.47
2022-09-29T05:11:01.004Z,7.47
2022-09-29T05:11:51.004Z,7.47
2022-09-29T05:12:40.997Z,7.45
2022-09-29T05:13:30.983Z,7.47
2022-09-29T05:14:21.005Z,7.47
2022-09-29T05:15:10.964Z,7.48
2022-09-29T05:16:01.008Z,7.52
2022-09-29T05:16:50.959Z,7.52
2022-09-29T05:17:40.932Z,7.57
2022-09-29T05:18:30.932Z,7.57
2022-09-29T05:19:21.050Z,7.60
2022-09-29T05:20:10.947Z,7.66
2022-09-29T05:21:23.269Z,7.67
2022-09-29T05:21:51.896Z,7.69
2022-09-29T05:22:40.878Z,7.70
2022-09-29T05:23:30.871Z,7.69
2022-09-29T05:24:20.872Z,7.71
2022-09-29T05:25:10.861Z,7.71
2022-09-29T05:26:00.842Z,7.73
2022-09-29T05:26:54.823Z,7.74
2022-09-29T05:27:41.828Z,7.76
2022-09-29T05:28:30.830Z,7.77
2022-09-29T05:29:20.936Z,7.77
2022-09-29T05:30:10.804Z,7.79
2022-09-29T05:31:00.787Z,7.81
2022-09-29T05:31:50.833Z,7.79
2022-09-29T05:32:41.023Z,7.81
2022-09-29T05:33:30.760Z,7.81
2022-09-29T05:34:20.760Z,7.82
2022-09-29T05:35:10.742Z,7.82
2022-09-29T05:36:00.731Z,7.82
2022-09-29T05:36:50.721Z,7.85
2022-09-29T05:37:40.709Z,7.85
2022-09-29T05:38:30.941Z,7.85
2022-09-29T05:39:20.943Z,7.85
2022-09-29T05:40:10.681Z,7.85
2022-09-29T05:41:00.737Z,7.85
2022-09-29T05:41:50.672Z,7.84
2022-09-29T05:42:40.651Z,7.84
2022-09-29T05:43:30.650Z,7.82
2022-09-29T05:44:20.660Z,7.81
2022-09-29T05:45:10.632Z,7.77
2022-09-29T05:46:00.630Z,7.77
2022-09-29T05:46:50.609Z,7.79
2022-09-29T05:47:40.603Z,7.77
2022-09-29T05:48:30.593Z,7.74
2022-09-29T05:49:20.691Z,7.73
2022-09-29T05:50:10.808Z,7.70
2022-09-29T05:51:00.561Z,7.69
2022-09-29T05:51:50.559Z,7.69
2022-09-29T05:52:40.539Z,7.70
2022-09-29T05:53:30.539Z,7.71
2022-09-29T05:54:20.530Z,7.73
2022-09-29T05:55:10.518Z,7.73
2022-09-29T05:56:00.718Z,7.74
2022-09-29T05:56:50.499Z,7.79
2022-09-29T05:57:40.491Z,7.81
2022-09-29T05:58:30.490Z,7.84
2022-09-29T05:59:20.572Z,7.86
2022-09-29T06:00:10.470Z,7.86
2022-09-29T06:01:00.502Z,7.85
2022-09-29T06:01:50.721Z,7.84
2022-09-29T06:02:40.470Z,7.81
2022-09-29T06:03:30.517Z,7.79
2022-09-29T06:04:20.415Z,7.77
2022-09-29T06:05:10.407Z,7.74
2022-09-29T06:06:00.389Z,7.73
2022-09-29T06:06:50.389Z,7.71
2022-09-29T06:07:40.417Z,7.70
2022-09-29T06:08:30.379Z,7.71
2022-09-29T06:09:20.430Z,7.70
2022-09-29T06:10:10.355Z,7.71
2022-09-29T06:11:00.346Z,7.71
2022-09-29T06:11:50.336Z,7.71
2022-09-29T06:12:40.323Z,7.70
2022-09-29T06:13:30.349Z,7.70
2022-09-29T06:14:20.296Z,7.70
2022-09-29T06:15:10.295Z,7.69
2022-09-29T06:16:00.275Z,7.70
2022-09-29T06:16:50.310Z,7.69
2022-09-29T06:17:40.263Z,7.67
2022-09-29T06:18:30.273Z,7.69
2022-09-29T06:19:20.399Z,7.69
2022-09-29T06:20:10.248Z,7.69
2022-09-29T06:21:00.255Z,7.70
2022-09-29T06:21:50.234Z,7.71
2022-09-29T06:22:40.213Z,7.73
2022-09-29T06:23:30.205Z,7.76
2022-09-29T06:24:20.184Z,7.77
2022-09-29T06:25:10.515Z,7.76
2022-09-29T06:26:00.173Z,7.77
2022-09-29T06:26:50.163Z,7.76
2022-09-29T06:27:40.165Z,7.74
2022-09-29T06:28:30.143Z,7.76
2022-09-29T06:29:20.240Z,7.74
2022-09-29T06:30:10.124Z,7.74
2022-09-29T06:31:00.251Z,7.73
2022-09-29T06:31:50.177Z,7.74
2022-09-29T06:32:40.106Z,7.74
2022-09-29T06:33:30.086Z,7.74
2022-09-29T06:34:20.085Z,7.73
2022-09-29T06:35:10.086Z,7.73
2022-09-29T06:36:00.066Z,7.71
2022-09-29T06:36:50.073Z,7.76
2022-09-29T06:37:40.044Z,7.76
2022-09-29T06:38:30.036Z,7.76
2022-09-29T06:39:20.173Z,7.79
2022-09-29T06:40:11.207Z,7.79
2022-09-29T06:41:00.125Z,7.82
2022-09-29T06:41:50.003Z,7.81
2022-09-29T06:42:40.013Z,7.81
2022-09-29T06:43:29.974Z,7.82
2022-09-29T06:44:19.977Z,7.82
2022-09-29T06:45:09.961Z,7.82
2022-09-29T06:46:00.010Z,7.84
2022-09-29T06:46:49.941Z,7.85
2022-09-29T06:47:39.935Z,7.86
2022-09-29T06:48:29.964Z,7.85
2022-09-29T06:49:20.042Z,7.85
2022-09-29T06:50:23.017Z,7.84
2022-09-29T06:51:09.550Z,7.82
2022-09-29T06:51:50.885Z,7.79
2022-09-29T06:52:39.881Z,7.79
2022-09-29T06:53:37.101Z,7.77
2022-09-29T06:54:21.090Z,7.81
2022-09-29T06:55:09.850Z,7.82
2022-09-29T06:55:59.841Z,7.84
2022-09-29T06:56:49.833Z,7.84
2022-09-29T06:57:39.830Z,7.86
2022-09-29T06:58:29.816Z,7.85
2022-09-29T06:59:19.943Z,7.86
2022-09-29T07:00:10.004Z,7.89
2022-09-29T07:00:59.824Z,7.91
2022-09-29T07:01:49.854Z,7.91
2022-09-29T07:02:39.771Z,7.92
2022-09-29T07:03:29.751Z,7.94
2022-09-29T07:04:20.008Z,7.95
2022-09-29T07:05:09.732Z,7.96
2022-09-29T07:06:18.783Z,7.99
2022-09-29T07:06:50.719Z,7.95
2022-09-29T07:07:39.711Z,7.95
2022-09-29T07:08:29.703Z,7.96
2022-09-29T07:09:19.862Z,7.96
2022-09-29T07:10:09.680Z,7.99
2022-09-29T07:10:59.681Z,8.00
2022-09-29T07:11:49.890Z,8.00
2022-09-29T07:12:39.661Z,8.06
2022-09-29T07:13:29.639Z,8.07
2022-09-29T07:14:19.765Z,8.09
2022-09-29T07:15:09.622Z,8.06
2022-09-29T07:15:59.630Z,8.02
2022-09-29T07:16:49.691Z,7.99
2022-09-29T07:17:39.802Z,8.00
2022-09-29T07:18:29.590Z,8.02
2022-09-29T07:19:19.826Z,7.99
2022-09-29T07:20:09.569Z,8.00
2022-09-29T07:20:59.562Z,8.03
2022-09-29T07:21:49.549Z,8.03
2022-09-29T07:22:39.544Z,8.02
2022-09-29T07:23:29.808Z,8.00
2022-09-29T07:24:19.532Z,7.99
2022-09-29T07:25:09.508Z,8.02
2022-09-29T07:25:59.508Z,8.07
2022-09-29T07:26:49.489Z,8.10
2022-09-29T07:27:39.489Z,8.13
2022-09-29T07:28:29.468Z,8.17
2022-09-29T07:29:20.232Z,8.21
2022-09-29T07:30:09.457Z,8.13
2022-09-29T07:31:09.042Z,8.13
2022-09-29T07:31:52.298Z,8.18
2022-09-29T07:32:39.540Z,8.24
2022-09-29T07:33:37.764Z,8.28
2022-09-29T07:34:20.450Z,8.34
2022-09-29T07:35:09.400Z,8.37
2022-09-29T07:35:59.397Z,8.42
2022-09-29T07:36:49.380Z,8.43
2022-09-29T07:37:39.387Z,8.45
2022-09-29T07:38:29.370Z,8.43
2022-09-29T07:39:19.398Z,8.39
2022-09-29T07:40:09.368Z,8.39
2022-09-29T07:40:59.435Z,8.39
2022-09-29T07:41:49.334Z,8.28
2022-09-29T07:42:39.317Z,8.27
2022-09-29T07:43:29.306Z,8.25
2022-09-29T07:44:19.330Z,8.28
2022-09-29T07:45:09.289Z,8.29
2022-09-29T07:45:59.412Z,8.25
2022-09-29T07:46:49.273Z,8.25
2022-09-29T07:47:39.274Z,8.27
2022-09-29T07:48:31.966Z,8.31
2022-09-29T07:49:19.463Z,8.36
2022-09-29T07:50:09.228Z,8.42
2022-09-29T07:50:59.238Z,8.46
2022-09-29T07:51:49.268Z,8.49
2022-09-29T07:52:39.216Z,8.52
2022-09-29T07:53:29.197Z,8.54
2022-09-29T07:54:19.246Z,8.57
2022-09-29T07:55:09.176Z,8.63
2022-09-29T07:55:59.175Z,8.65
2022-09-29T07:56:49.156Z,8.68
2022-09-29T07:57:39.360Z,8.71
2022-09-29T07:58:29.142Z,8.75
2022-09-29T07:59:19.141Z,8.78
2022-09-29T08:00:09.122Z,8.80
2022-09-29T08:00:59.161Z,8.82
2022-09-29T08:01:49.320Z,8.83
2022-09-29T08:02:39.180Z,8.83
2022-09-29T08:03:29.296Z,8.82
2022-09-29T08:04:19.149Z,8.82
2022-09-29T08:05:09.063Z,8.79
2022-09-29T08:05:59.065Z,8.79
2022-09-29T08:06:49.050Z,8.78
2022-09-29T08:07:39.043Z,8.78
2022-09-29T08:08:29.028Z,8.79
2022-09-29T08:09:19.522Z,8.82
2022-09-29T08:10:16.690Z,8.82
2022-09-29T08:11:00.009Z,8.85
2022-09-29T08:11:55.399Z,8.89
2022-09-29T08:12:44.008Z,8.89
2022-09-29T08:13:29.002Z,8.93
2022-09-29T08:14:19.155Z,8.97
2022-09-29T08:15:09.232Z,8.98
2022-09-29T08:15:58.950Z,9.06
2022-09-29T08:16:48.997Z,9.12
2022-09-29T08:17:38.962Z,9.17
2022-09-29T08:18:29.025Z,9.22
2022-09-29T08:19:24.622Z,9.26
2022-09-29T08:20:10.027Z,9.32
2022-09-29T08:21:02.921Z,9.27
2022-09-29T08:21:51.555Z,9.23
2022-09-29T08:22:38.873Z,9.26
2022-09-29T08:23:29.396Z,9.32
2022-09-29T08:24:19.511Z,9.40
2022-09-29T08:25:08.875Z,9.45
2022-09-29T08:26:01.802Z,9.52
2022-09-29T08:26:49.005Z,9.55
2022-09-29T08:27:51.390Z,9.60
2022-09-29T08:28:36.534Z,9.63
2022-09-29T08:29:23.669Z,9.68
2022-09-29T08:30:08.796Z,9.73
2022-09-29T08:31:04.687Z,9.73
2022-09-29T08:31:49.600Z,9.75
2022-09-29T08:32:40.690Z,9.78
2022-09-29T08:33:29.420Z,9.81
2022-09-29T08:34:21.131Z,9.85
2022-09-29T08:35:09.610Z,9.91
2022-09-29T08:35:58.741Z,9.93
2022-09-29T08:36:48.714Z,9.99
2022-09-29T08:37:38.703Z,10.01
2022-09-29T08:38:29.220Z,10.06
2022-09-29T08:39:18.691Z,10.09
2022-09-29T08:40:08.678Z,10.13
2022-09-29T08:40:58.699Z,10.10
2022-09-29T08:41:48.662Z,10.13
2022-09-29T08:42:47.195Z,10.14
2022-09-29T08:43:34.728Z,10.14
2022-09-29T08:44:33.292Z,10.14
2022-09-29T08:45:16.262Z,10.16
2022-09-29T08:46:01.195Z,10.17
2022-09-29T08:46:49.068Z,10.20
2022-09-29T08:47:46.945Z,10.22
2022-09-29T08:48:29.582Z,10.22
2022-09-29T08:49:29.101Z,10.24
2022-09-29T08:50:09.571Z,10.24
2022-09-29T08:50:58.569Z,10.28
2022-09-29T08:51:48.570Z,10.31
2022-09-29T08:52:49.863Z,10.34
2022-09-29T08:53:29.728Z,10.36
2022-09-29T08:54:28.317Z,10.38
2022-09-29T08:55:19.157Z,10.39
2022-09-29T08:55:59.511Z,10.44
2022-09-29T08:56:48.491Z,10.49
2022-09-29T08:57:38.492Z,10.49
2022-09-29T08:58:28.469Z,10.51
2022-09-29T08:59:19.809Z,10.51
2022-09-29T09:00:08.459Z,10.52
2022-09-29T09:00:58.494Z,10.52
2022-09-29T09:01:48.439Z,10.55
2022-09-29T09:02:38.520Z,10.58
2022-09-29T09:03:28.452Z,10.60
2022-09-29T09:04:18.411Z,10.63
2022-09-29T09:05:08.428Z,10.65
2022-09-29T09:05:58.391Z,10.68
2022-09-29T09:06:48.379Z,10.68
2022-09-29T09:07:38.523Z,10.73
2022-09-29T09:08:28.395Z,10.72
2022-09-29T09:09:18.399Z,10.76
2022-09-29T09:10:08.352Z,10.78
2022-09-29T09:10:58.561Z,10.81
2022-09-29T09:11:48.327Z,10.83
2022-09-29T09:12:38.318Z,10.87
2022-09-29T09:13:28.306Z,10.87
2022-09-29T09:14:18.298Z,10.87
2022-09-29T09:15:08.287Z,10.88
2022-09-29T09:15:58.301Z,10.88
2022-09-29T09:16:48.348Z,10.91
2022-09-29T09:17:38.258Z,10.93
2022-09-29T09:18:28.248Z,10.93
2022-09-29T09:19:18.322Z,10.94
2022-09-29T09:20:08.248Z,10.95
2022-09-29T09:20:58.229Z,10.99
2022-09-29T09:21:48.216Z,11.01
2022-09-29T09:23:28.195Z,11.06
2022-09-29T09:24:20.345Z,11.12
2022-09-29T09:25:09.177Z,11.13
2022-09-29T09:25:58.183Z,11.16
2022-09-29T09:26:48.157Z,11.12
2022-09-29T09:27:38.302Z,11.16
2022-09-29T09:28:28.189Z,11.16
2022-09-29T09:29:18.139Z,11.13
2022-09-29T09:30:08.125Z,11.16
2022-09-29T09:30:58.189Z,11.19
2022-09-29T09:31:48.106Z,11.24
2022-09-29T09:32:38.096Z,11.27
2022-09-29T09:33:31.654Z,11.27
2022-09-29T09:34:18.437Z,11.31
2022-09-29T09:35:21.840Z,11.33
2022-09-29T09:35:59.440Z,11.33
2022-09-29T09:36:51.860Z,11.36
2022-09-29T09:37:39.072Z,11.36
2022-09-29T09:38:28.034Z,11.36
2022-09-29T09:39:18.019Z,11.41
2022-09-29T09:40:08.037Z,11.45
2022-09-29T09:40:58.006Z,11.51
2022-09-29T09:41:48.002Z,11.54
2022-09-29T09:42:37.996Z,11.56
2022-09-29T09:43:27.976Z,11.62
2022-09-29T09:44:18.008Z,11.64
2022-09-29T09:45:07.958Z,11.64
2022-09-29T09:45:58.244Z,11.63
2022-09-29T09:46:48.384Z,11.69
2022-09-29T09:47:37.931Z,11.70
2022-09-29T09:48:31.517Z,11.70
2022-09-29T09:49:17.969Z,11.70
2022-09-29T09:50:07.895Z,11.72
2022-09-29T09:50:57.895Z,11.72
2022-09-29T09:51:47.966Z,11.75
2022-09-29T09:52:37.875Z,11.75
2022-09-29T09:53:27.865Z,11.77
2022-09-29T09:54:17.948Z,11.78
2022-09-29T09:55:07.845Z,11.79
2022-09-29T09:55:57.844Z,11.79
2022-09-29T09:56:47.834Z,11.78
2022-09-29T09:57:37.864Z,11.78
2022-09-29T09:58:27.805Z,11.79
2022-09-29T09:59:17.905Z,11.79
2022-09-29T10:00:07.797Z,11.82
2022-09-29T10:00:57.828Z,11.85
2022-09-29T10:01:47.802Z,11.85
2022-09-29T10:02:37.802Z,11.87
2022-09-29T10:03:27.793Z,11.81
2022-09-29T10:04:17.751Z,11.74
2022-09-29T10:05:09.631Z,11.64
2022-09-29T10:05:57.729Z,11.49
2022-09-29T10:06:47.719Z,11.45
2022-09-29T10:07:37.705Z,11.42
2022-09-29T10:08:27.715Z,11.39
2022-09-29T10:09:17.994Z,11.44
2022-09-29T10:10:07.675Z,11.46
2022-09-29T10:10:59.357Z,11.56
2022-09-29T10:11:47.665Z,11.63
2022-09-29T10:12:37.655Z,11.64
2022-09-29T10:13:27.661Z,11.72
2022-09-29T10:14:17.657Z,11.78
2022-09-29T10:15:07.626Z,11.81
2022-09-29T10:15:57.620Z,11.87
2022-09-29T10:16:48.850Z,11.93
2022-09-29T10:17:37.609Z,11.96
2022-09-29T10:18:27.585Z,11.98
2022-09-29T10:19:17.636Z,12.01
2022-09-29T10:20:08.013Z,12.01
2022-09-29T10:20:57.554Z,11.96
2022-09-29T10:21:47.544Z,11.96
2022-09-29T10:22:37.546Z,11.97
2022-09-29T10:23:27.541Z,11.98
2022-09-29T10:24:17.585Z,12.07
2022-09-29T10:25:07.518Z,12.13
2022-09-29T10:25:57.523Z,12.15
2022-09-29T10:26:47.493Z,12.15
2022-09-29T10:27:37.506Z,12.18
2022-09-29T10:28:27.483Z,12.19
2022-09-29T10:29:17.467Z,12.19
2022-09-29T10:30:07.453Z,12.23
2022-09-29T10:30:57.500Z,12.25
2022-09-29T10:31:47.483Z,12.30
2022-09-29T10:32:37.452Z,12.33
2022-09-29T10:33:27.423Z,12.37
2022-09-29T10:34:17.500Z,12.40
2022-09-29T10:35:07.444Z,12.41
2022-09-29T10:35:57.385Z,12.44
2022-09-29T10:36:47.394Z,12.44
2022-09-29T10:37:37.423Z,12.41
2022-09-29T10:38:27.380Z,12.41
2022-09-29T10:39:17.358Z,12.41
2022-09-29T10:40:07.358Z,12.41
2022-09-29T10:40:57.361Z,12.44
2022-09-29T10:41:47.334Z,12.41
2022-09-29T10:42:37.318Z,12.38
2022-09-29T10:43:27.546Z,12.40
2022-09-29T10:44:17.376Z,12.37
2022-09-29T10:45:07.293Z,12.30
2022-09-29T10:45:57.349Z,12.31
2022-09-29T10:46:47.279Z,12.23
2022-09-29T10:47:37.260Z,12.16
2022-09-29T10:48:27.261Z,12.08
2022-09-29T10:49:17.314Z,12.11
2022-09-29T10:50:07.261Z,12.08
2022-09-29T10:50:57.270Z,12.03
2022-09-29T10:51:47.222Z,12.01
2022-09-29T10:52:37.213Z,12.11
2022-09-29T10:53:27.203Z,12.19
2022-09-29T10:54:17.195Z,12.30
2022-09-29T10:55:07.711Z,12.37
2022-09-29T10:55:57.198Z,12.46
2022-09-29T10:56:47.161Z,12.55
2022-09-29T10:57:37.151Z,12.58
2022-09-29T10:58:45.139Z,12.62
2022-09-29T10:59:18.129Z,12.70
2022-09-29T11:00:07.130Z,12.73
2022-09-29T11:00:57.376Z,12.77